createdAt,value
2023-01-29T00:01:25.252Z,17.70
2023-01-29T00:03:52.347Z,17.45
2023-01-29T00:06:19.335Z,17.90
2023-01-29T00:08:46.910Z,17.52
2023-01-29T00:11:14.054Z,15.57
2023-01-29T00:13:40.842Z,17.50
2023-01-29T00:16:07.982Z,17.33
2023-01-29T00:18:39.634Z,16.17
2023-01-29T00:21:14.268Z,15.48
2023-01-29T00:23:41.718Z,17.27
2023-01-29T00:26:08.775Z,16.30
2023-01-29T00:28:36.824Z,17.38
2023-01-29T00:31:07.991Z,17.90
2023-01-29T00:33:35.153Z,18.17
2023-01-29T00:36:02.665Z,17.42
2023-01-29T00:38:29.513Z,18.67
2023-01-29T00:41:15.057Z,18.27
2023-01-29T00:44:00.485Z,17.20
2023-01-29T00:46:27.321Z,17.48
2023-01-29T00:48:54.454Z,17.30
2023-01-29T00:51:21.403Z,17.65
2023-01-29T00:53:48.176Z,16.13
2023-01-29T00:56:14.951Z,17.75
2023-01-29T00:58:42.042Z,19.10
2023-01-29T01:01:08.859Z,17.95
2023-01-29T01:03:42.763Z,18.08
2023-01-29T01:06:10.783Z,17.67
2023-01-29T01:08:56.769Z,17.95
2023-01-29T01:11:23.646Z,17.00
2023-01-29T01:13:51.371Z,17.83
2023-01-29T01:16:21.023Z,17.90
2023-01-29T01:18:47.955Z,18.33
2023-01-29T01:21:14.779Z,18.05
2023-01-29T01:23:43.157Z,18.40
2023-01-29T01:26:10.944Z,19.77
2023-01-29T01:28:38.281Z,18.13
2023-01-29T01:31:12.919Z,19.17
2023-01-29T01:33:40.349Z,18.35
2023-01-29T01:36:10.380Z,17.85
2023-01-29T01:38:44.442Z,18.80
2023-01-29T01:41:12.776Z,18.90
2023-01-29T01:44:06.650Z,18.58
2023-01-29T01:46:37.698Z,18.58
2023-01-29T01:49:08.240Z,18.15
2023-01-29T01:51:36.307Z,19.35
2023-01-29T01:54:08.154Z,18.98
2023-01-29T01:56:40.739Z,20.10
2023-01-29T01:59:11.365Z,19.15
2023-01-29T02:01:42.911Z,20.33
2023-01-29T02:04:31.920Z,19.45
2023-01-29T02:07:19.864Z,19.42
2023-01-29T02:09:52.425Z,19.35
2023-01-29T02:12:19.957Z,19.50
2023-01-29T02:14:47.207Z,20.20
2023-01-29T02:17:15.892Z,19.55
2023-01-29T02:19:43.885Z,19.48
2023-01-29T02:22:10.886Z,18.90
2023-01-29T02:24:38.211Z,20.20
2023-01-29T02:27:10.365Z,21.15
2023-01-29T02:29:43.231Z,19.90
2023-01-29T02:32:09.979Z,18.33
2023-01-29T02:34:58.224Z,18.55
2023-01-29T02:37:34.938Z,19.48
2023-01-29T02:40:08.941Z,19.85
2023-01-29T02:42:41.870Z,19.15
2023-01-29T02:45:08.549Z,19.48
2023-01-29T02:47:40.326Z,18.90
2023-01-29T02:50:07.307Z,19.40
2023-01-29T02:52:38.349Z,20.08
2023-01-29T02:55:22.050Z,18.92
2023-01-29T02:57:51.354Z,19.77
2023-01-29T03:00:24.473Z,19.83
2023-01-29T03:02:56.304Z,18.85
2023-01-29T03:05:27.558Z,19.17
2023-01-29T03:07:56.754Z,19.25
2023-01-29T03:10:35.453Z,19.73
2023-01-29T03:13:35.472Z,20.63
2023-01-29T03:16:22.724Z,19.75
2023-01-29T03:18:53.082Z,18.92
2023-01-29T03:21:41.366Z,18.80
2023-01-29T03:24:31.518Z,19.30
2023-01-29T03:27:19.757Z,17.98
2023-01-29T03:30:07.386Z,18.90
2023-01-29T03:32:48.875Z,19.73
2023-01-29T03:35:21.114Z,19.50
2023-01-29T03:37:49.093Z,19.08
2023-01-29T03:40:16.829Z,20.42
2023-01-29T03:42:56.531Z,19.90
2023-01-29T03:45:26.378Z,19.50
2023-01-29T03:48:17.398Z,19.40
2023-01-29T03:50:54.308Z,20.00
2023-01-29T03:53:28.423Z,17.63
2023-01-29T03:56:07.215Z,18.63
2023-01-29T03:58:46.574Z,17.52
2023-01-29T04:01:26.135Z,19.77
2023-01-29T04:03:56.947Z,18.52
2023-01-29T04:06:27.383Z,18.60
2023-01-29T04:09:28.671Z,18.00
2023-01-29T04:11:59.873Z,18.20
2023-01-29T04:14:26.993Z,19.00
2023-01-29T04:16:57.858Z,17.33
2023-01-29T04:19:36.566Z,18.23
2023-01-29T04:22:10.662Z,18.58
2023-01-29T04:24:37.966Z,17.75
2023-01-29T04:27:07.759Z,17.23
2023-01-29T04:29:41.526Z,18.48
2023-01-29T04:34:51.925Z,18.15
2023-01-29T04:37:29.881Z,18.17
2023-01-29T04:40:00.936Z,18.85
2023-01-29T04:42:57.191Z,17.27
2023-01-29T04:45:27.083Z,18.67
2023-01-29T04:48:15.273Z,19.13
2023-01-29T04:50:45.661Z,18.05
2023-01-29T04:53:15.395Z,17.83
2023-01-29T04:55:51.516Z,18.35
2023-01-29T04:58:38.279Z,17.73
2023-01-29T05:01:06.818Z,18.33
2023-01-29T05:03:34.042Z,19.25
2023-01-29T05:06:01.819Z,18.75
2023-01-29T05:08:29.867Z,17.92
2023-01-29T05:10:58.117Z,20.27
2023-01-29T05:13:25.734Z,19.80
2023-01-29T05:15:56.247Z,19.63
2023-01-29T05:18:23.447Z,19.50
2023-01-29T05:20:50.453Z,19.73
2023-01-29T05:23:18.253Z,19.55
2023-01-29T05:25:45.634Z,18.25
2023-01-29T05:28:18.680Z,18.65
2023-01-29T05:30:49.836Z,18.27
2023-01-29T05:33:18.485Z,19.67
2023-01-29T05:35:45.914Z,18.98
2023-01-29T05:38:13.331Z,18.23
2023-01-29T05:40:40.400Z,18.67
2023-01-29T05:43:14.320Z,18.80
2023-01-29T05:45:41.545Z,18.55
2023-01-29T05:48:08.754Z,19.13
2023-01-29T05:50:35.892Z,18.77
2023-01-29T05:53:02.847Z,19.48
2023-01-29T05:55:29.706Z,19.65
2023-01-29T05:57:56.545Z,20.23
2023-01-29T06:00:23.634Z,21.20
2023-01-29T06:02:50.564Z,20.63
2023-01-29T06:05:17.439Z,19.75
2023-01-29T06:07:45.306Z,20.52
2023-01-29T06:10:16.383Z,19.88
2023-01-29T06:12:43.659Z,20.15
2023-01-29T06:15:11.706Z,21.40
2023-01-29T06:17:38.597Z,19.75
2023-01-29T06:20:05.788Z,21.33
2023-01-29T06:22:32.839Z,20.45
2023-01-29T06:24:59.620Z,20.00
2023-01-29T06:27:26.790Z,19.08
2023-01-29T06:29:53.615Z,20.00
2023-01-29T06:32:20.656Z,20.08
2023-01-29T06:34:49.662Z,19.65
2023-01-29T06:37:16.635Z,18.80
2023-01-29T06:39:43.322Z,19.23
2023-01-29T06:42:11.367Z,18.98
2023-01-29T06:44:38.196Z,19.70
2023-01-29T06:47:04.950Z,19.15
2023-01-29T06:49:31.797Z,18.38
2023-01-29T06:51:58.594Z,17.52
2023-01-29T06:54:25.379Z,20.55
2023-01-29T06:56:52.157Z,20.02
2023-01-29T06:59:18.818Z,19.70
2023-01-29T07:01:45.879Z,20.27
2023-01-29T07:04:12.904Z,19.60
2023-01-29T07:06:39.728Z,18.63
2023-01-29T07:09:06.565Z,18.40
2023-01-29T07:11:34.467Z,20.25
2023-01-29T07:14:01.281Z,21.02
2023-01-29T07:16:28.306Z,20.80
2023-01-29T07:18:55.470Z,20.30
2023-01-29T07:21:22.332Z,19.98
2023-01-29T07:23:49.190Z,19.85
2023-01-29T07:26:16.083Z,19.13
2023-01-29T07:28:42.986Z,20.67
2023-01-29T07:31:12.144Z,19.52
2023-01-29T07:33:39.298Z,19.55
2023-01-29T07:36:09.551Z,20.38
2023-01-29T07:38:36.649Z,18.77
2023-01-29T07:41:03.620Z,20.55
2023-01-29T07:43:30.671Z,18.52
2023-01-29T07:46:01.408Z,17.50
2023-01-29T07:48:28.477Z,18.33
2023-01-29T07:50:55.972Z,18.50
2023-01-29T07:53:23.673Z,19.27
2023-01-29T07:55:50.779Z,18.20
2023-01-29T07:58:17.791Z,18.63
2023-01-29T08:00:44.686Z,18.55
2023-01-29T08:03:13.100Z,18.90
2023-01-29T08:05:39.845Z,16.83
2023-01-29T08:08:12.136Z,18.35
2023-01-29T08:10:40.121Z,18.80
2023-01-29T08:13:07.078Z,17.67
2023-01-29T08:15:36.003Z,18.63
2023-01-29T08:18:04.314Z,19.98
2023-01-29T08:20:31.140Z,18.30
2023-01-29T08:23:01.852Z,20.00
2023-01-29T08:25:29.980Z,18.90
2023-01-29T08:27:57.925Z,18.45
2023-01-29T08:30:28.481Z,17.60
2023-01-29T08:32:55.906Z,19.58
2023-01-29T08:35:23.094Z,18.73
2023-01-29T08:37:56.882Z,17.80
2023-01-29T08:40:23.858Z,18.27
2023-01-29T08:42:50.735Z,18.67
2023-01-29T08:45:17.806Z,17.95
2023-01-29T08:47:48.494Z,17.80
2023-01-29T08:50:16.451Z,17.00
2023-01-29T08:52:43.900Z,16.90
2023-01-29T08:55:11.226Z,16.77
2023-01-29T08:57:39.051Z,16.58
2023-01-29T09:00:06.661Z,17.17
2023-01-29T09:02:33.585Z,17.15
2023-01-29T09:05:00.688Z,16.55
2023-01-29T09:07:29.146Z,15.32
2023-01-29T09:09:56.095Z,16.05
2023-01-29T09:12:22.779Z,17.23
2023-01-29T09:14:49.591Z,16.42
2023-01-29T09:17:16.333Z,17.10
2023-01-29T09:19:43.430Z,17.65
2023-01-29T09:22:11.828Z,17.17
2023-01-29T09:24:38.752Z,17.00
2023-01-29T09:27:06.340Z,16.38
2023-01-29T09:29:35.505Z,15.85
2023-01-29T09:32:03.994Z,16.85
2023-01-29T09:34:30.768Z,16.60
2023-01-29T09:36:57.669Z,16.77
2023-01-29T09:39:24.512Z,16.75
2023-01-29T09:42:04.260Z,17.08
2023-01-29T09:44:31.015Z,17.50
2023-01-29T09:47:00.194Z,16.08
2023-01-29T09:49:31.640Z,17.40
2023-01-29T09:52:00.833Z,16.60
2023-01-29T09:54:32.937Z,18.55
2023-01-29T09:57:00.764Z,16.80
2023-01-29T09:59:29.774Z,17.88
2023-01-29T10:02:00.124Z,17.70
2023-01-29T10:04:36.201Z,16.42
2023-01-29T10:07:16.351Z,17.83
2023-01-29T10:09:46.179Z,18.30
2023-01-29T10:12:13.045Z,18.42
2023-01-29T10:15:00.543Z,18.42
2023-01-29T10:17:30.571Z,20.20
2023-01-29T10:20:04.741Z,19.67
2023-01-29T10:22:31.500Z,18.67
2023-01-29T10:25:02.240Z,19.30
2023-01-29T10:27:33.764Z,16.95
2023-01-29T10:30:02.575Z,19.83
2023-01-29T10:32:30.579Z,18.55
2023-01-29T10:35:03.020Z,18.88
2023-01-29T10:37:38.015Z,18.77
2023-01-29T10:40:20.086Z,17.98
2023-01-29T10:42:50.088Z,19.40
2023-01-29T10:45:35.899Z,18.17
2023-01-29T10:48:04.829Z,17.67
2023-01-29T10:50:39.459Z,18.50
2023-01-29T10:53:09.447Z,18.92
2023-01-29T10:55:54.693Z,16.85
2023-01-29T10:58:27.469Z,17.95
2023-01-29T11:00:54.274Z,16.58
2023-01-29T11:03:31.253Z,19.85
2023-01-29T11:06:16.708Z,17.13
2023-01-29T11:08:49.670Z,18.63
2023-01-29T11:11:17.612Z,18.45
2023-01-29T11:13:50.809Z,18.42
2023-01-29T11:16:17.582Z,19.08
2023-01-29T11:18:53.998Z,18.58
2023-01-29T11:23:47.830Z,18.92
2023-01-29T11:26:18.341Z,19.10
2023-01-29T11:28:46.210Z,19.25
2023-01-29T11:31:39.511Z,18.63
2023-01-29T11:34:16.722Z,17.95
2023-01-29T11:36:45.014Z,18.58
2023-01-29T11:39:19.638Z,19.05
2023-01-29T11:41:49.796Z,18.75
2023-01-29T11:44:27.906Z,20.55
2023-01-29T11:46:55.276Z,18.35
2023-01-29T11:49:24.475Z,19.45
2023-01-29T11:51:52.709Z,18.63
2023-01-29T11:54:20.660Z,18.88
2023-01-29T11:56:48.078Z,19.08
2023-01-29T11:59:25.082Z,20.38
2023-01-29T12:01:52.014Z,20.30
2023-01-29T12:04:20.738Z,20.63
2023-01-29T12:06:50.598Z,18.48
2023-01-29T12:09:18.475Z,20.13
2023-01-29T12:11:45.316Z,19.38
2023-01-29T12:14:33.672Z,20.83
2023-01-29T12:17:06.737Z,18.17
2023-01-29T12:19:40.567Z,20.38
2023-01-29T12:22:15.272Z,19.85
2023-01-29T12:24:59.330Z,19.75
2023-01-29T12:27:32.228Z,19.20
2023-01-29T12:30:18.229Z,20.15
2023-01-29T12:32:49.965Z,20.40
2023-01-29T12:35:24.466Z,21.90
2023-01-29T12:38:08.132Z,20.75
2023-01-29T12:40:40.111Z,19.58
2023-01-29T12:43:17.124Z,20.95
2023-01-29T12:45:45.040Z,20.52
2023-01-29T12:48:19.454Z,21.10
2023-01-29T12:50:47.241Z,20.88
2023-01-29T12:53:23.325Z,19.95
2023-01-29T12:55:55.593Z,20.08
2023-01-29T12:58:24.208Z,21.33
2023-01-29T13:00:52.954Z,20.45
2023-01-29T13:03:24.185Z,20.58
2023-01-29T13:06:08.622Z,20.08
2023-01-29T13:08:37.688Z,19.77
2023-01-29T13:11:10.922Z,18.27
2023-01-29T13:13:54.104Z,21.80
2023-01-29T13:16:30.528Z,20.35
2023-01-29T13:21:34.043Z,18.70
2023-01-29T13:24:03.587Z,19.17
2023-01-29T13:26:31.965Z,19.38
2023-01-29T13:28:58.870Z,19.10
2023-01-29T13:31:30.338Z,18.13
2023-01-29T13:34:03.195Z,18.65
2023-01-29T13:36:30.808Z,20.02
2023-01-29T13:39:08.710Z,20.38
2023-01-29T13:41:39.975Z,19.10
2023-01-29T13:44:08.927Z,18.70
2023-01-29T13:46:39.513Z,18.75
2023-01-29T13:49:17.508Z,17.05
2023-01-29T13:51:44.332Z,17.52
2023-01-29T13:54:17.515Z,19.90
2023-01-29T13:57:10.810Z,18.60
2023-01-29T13:59:55.250Z,19.85
2023-01-29T14:02:31.200Z,18.75
2023-01-29T14:05:30.674Z,19.20
2023-01-29T14:07:59.317Z,18.45
2023-01-29T14:10:28.904Z,18.67
2023-01-29T14:13:18.155Z,20.15
2023-01-29T14:15:45.928Z,19.08
2023-01-29T14:18:12.806Z,19.60
2023-01-29T14:20:48.799Z,19.65
2023-01-29T14:23:36.078Z,20.23
2023-01-29T14:26:05.223Z,18.83
2023-01-29T14:28:33.350Z,20.30
2023-01-29T14:31:00.386Z,18.48
2023-01-29T14:33:43.336Z,18.85
2023-01-29T14:36:12.298Z,19.23
2023-01-29T14:38:39.949Z,19.58
2023-01-29T14:41:15.983Z,20.20
2023-01-29T14:43:42.812Z,18.92
2023-01-29T14:46:48.267Z,19.25
2023-01-29T14:49:35.732Z,19.52
2023-01-29T14:52:02.946Z,19.83
2023-01-29T14:54:33.655Z,19.23
2023-01-29T14:57:05.229Z,19.80
2023-01-29T14:59:37.922Z,18.17
2023-01-29T15:02:12.690Z,20.13
2023-01-29T15:04:42.974Z,19.58
2023-01-29T15:07:09.693Z,19.35
2023-01-29T15:09:55.619Z,17.17
2023-01-29T15:12:28.979Z,19.13
2023-01-29T15:15:13.857Z,18.50
2023-01-29T15:17:43.347Z,17.17
2023-01-29T15:20:28.700Z,15.98
2023-01-29T15:22:55.700Z,17.33
2023-01-29T15:25:22.498Z,17.58
2023-01-29T15:27:49.844Z,16.02
2023-01-29T15:30:18.396Z,17.70
2023-01-29T15:32:46.293Z,18.23
2023-01-29T15:35:31.970Z,17.38
2023-01-29T15:38:00.340Z,17.67
2023-01-29T15:40:27.801Z,17.52
2023-01-29T15:42:54.544Z,18.00
2023-01-29T15:45:22.668Z,17.13
2023-01-29T15:47:50.131Z,18.35
2023-01-29T15:50:17.710Z,17.63
2023-01-29T15:52:48.685Z,17.23
2023-01-29T15:55:16.108Z,18.02
2023-01-29T15:57:44.179Z,18.55
2023-01-29T16:00:40.702Z,19.08
2023-01-29T16:03:15.549Z,18.50
2023-01-29T16:05:42.726Z,17.92
2023-01-29T16:08:13.062Z,15.82
2023-01-29T16:10:41.530Z,19.83
2023-01-29T16:13:26.204Z,20.38
2023-01-29T16:15:55.057Z,21.27
2023-01-29T16:18:23.600Z,21.02
2023-01-29T16:20:52.078Z,20.63
2023-01-29T16:23:20.278Z,21.52
2023-01-29T16:25:47.838Z,20.00
2023-01-29T16:28:14.972Z,21.73
2023-01-29T16:30:41.841Z,20.55
2023-01-29T16:33:13.007Z,22.02
2023-01-29T16:35:40.577Z,20.63
2023-01-29T16:38:23.752Z,19.40
2023-01-29T16:41:09.235Z,18.33
2023-01-29T16:43:42.205Z,20.23
2023-01-29T16:46:38.613Z,19.88
2023-01-29T16:49:25.371Z,20.48
2023-01-29T16:54:23.419Z,18.15
2023-01-29T16:56:51.320Z,19.63
2023-01-29T16:59:35.158Z,19.88
2023-01-29T17:02:02.521Z,19.58
2023-01-29T17:04:29.491Z,19.63
2023-01-29T17:07:01.360Z,17.98
2023-01-29T17:09:35.038Z,19.05
2023-01-29T17:12:03.401Z,20.08
2023-01-29T17:14:31.171Z,20.65
2023-01-29T17:17:14.380Z,19.25
2023-01-29T17:19:41.379Z,21.00
2023-01-29T17:22:14.646Z,19.50
2023-01-29T17:24:41.863Z,19.33
2023-01-29T17:27:13.829Z,19.20
2023-01-29T17:29:40.572Z,19.38
2023-01-29T17:32:08.956Z,20.75
2023-01-29T17:34:35.772Z,20.38
2023-01-29T17:37:02.665Z,16.40
2023-01-29T17:39:29.615Z,20.45
2023-01-29T17:41:57.609Z,20.10
2023-01-29T17:44:26.215Z,19.70
2023-01-29T17:46:53.336Z,20.30
2023-01-29T17:49:24.921Z,21.23
2023-01-29T17:51:55.917Z,19.13
2023-01-29T17:54:23.136Z,19.25
2023-01-29T17:56:50.290Z,20.17
2023-01-29T17:59:18.607Z,20.73
2023-01-29T18:01:45.651Z,21.50
2023-01-29T18:04:13.599Z,20.50
2023-01-29T18:06:41.625Z,21.48
2023-01-29T18:09:10.220Z,21.83
2023-01-29T18:11:37.313Z,19.95
2023-01-29T18:14:13.587Z,21.10
2023-01-29T18:16:41.871Z,20.83
2023-01-29T18:19:22.898Z,18.15
2023-01-29T18:21:50.286Z,21.05
2023-01-29T18:24:17.141Z,19.10
2023-01-29T18:26:44.014Z,21.55
2023-01-29T18:29:10.948Z,20.65
2023-01-29T18:31:38.027Z,19.75
2023-01-29T18:34:05.053Z,20.52
2023-01-29T18:36:32.189Z,22.00
2023-01-29T18:38:59.083Z,20.27
2023-01-29T18:41:26.173Z,19.98
2023-01-29T18:43:53.276Z,19.70
2023-01-29T18:46:20.846Z,21.45
2023-01-29T18:48:47.881Z,19.92
2023-01-29T18:51:14.830Z,20.42
2023-01-29T18:53:41.791Z,21.25
2023-01-29T18:56:09.968Z,20.58
2023-01-29T18:58:37.242Z,20.70
2023-01-29T19:01:09.441Z,21.80
2023-01-29T19:03:36.969Z,21.83
2023-01-29T19:06:04.719Z,21.35
2023-01-29T19:08:31.647Z,20.73
2023-01-29T19:11:02.459Z,20.60
2023-01-29T19:13:30.124Z,21.77
2023-01-29T19:15:57.069Z,22.05
2023-01-29T19:18:26.137Z,22.98
2023-01-29T19:20:53.131Z,20.30
2023-01-29T19:23:20.468Z,22.90
2023-01-29T19:25:48.869Z,21.00
2023-01-29T19:28:15.707Z,18.38
2023-01-29T19:30:43.035Z,19.48
2023-01-29T19:33:10.223Z,21.92
2023-01-29T19:35:37.247Z,22.13
2023-01-29T19:38:04.433Z,22.23
2023-01-29T19:40:31.277Z,23.38
2023-01-29T19:42:58.822Z,22.52
2023-01-29T19:45:48.925Z,21.10
2023-01-29T19:48:14.840Z,21.88
2023-01-29T19:50:42.618Z,21.25
2023-01-29T19:53:09.880Z,22.83
2023-01-29T19:55:36.862Z,20.17
2023-01-29T19:58:04.775Z,21.48
2023-01-29T20:00:31.624Z,22.48
2023-01-29T20:02:58.408Z,21.58
2023-01-29T20:05:27.245Z,22.35
2023-01-29T20:07:54.186Z,23.85
2023-01-29T20:10:21.246Z,20.55
2023-01-29T20:12:48.215Z,21.85
2023-01-29T20:15:15.313Z,22.75
2023-01-29T20:17:42.348Z,13.45
2023-01-29T20:20:09.752Z,22.33
2023-01-29T20:22:36.620Z,22.98
2023-01-29T20:25:03.451Z,21.75
2023-01-29T20:27:30.259Z,22.20
2023-01-29T20:29:57.633Z,23.75
2023-01-29T20:32:24.559Z,22.55
2023-01-29T20:34:52.377Z,22.25
2023-01-29T20:37:19.806Z,22.73
2023-01-29T20:39:46.686Z,22.30
2023-01-29T20:42:13.452Z,24.33
2023-01-29T20:44:40.257Z,22.88
2023-01-29T20:47:07.381Z,23.95
2023-01-29T20:49:34.253Z,23.05
2023-01-29T20:52:01.075Z,24.67
2023-01-29T20:54:30.006Z,22.60
2023-01-29T20:56:57.167Z,24.67
2023-01-29T20:59:23.986Z,24.38
2023-01-29T21:01:51.017Z,23.98
2023-01-29T21:04:17.837Z,24.38
2023-01-29T21:06:44.737Z,24.73
2023-01-29T21:09:11.538Z,24.63
2023-01-29T21:11:38.222Z,22.63
2023-01-29T21:14:05.254Z,24.77
2023-01-29T21:16:32.208Z,24.20
2023-01-29T21:18:59.558Z,25.58
2023-01-29T21:21:26.931Z,24.20
2023-01-29T21:23:53.858Z,24.17
2023-01-29T21:26:20.595Z,18.45
2023-01-29T21:28:47.680Z,24.38
2023-01-29T21:31:16.201Z,21.70
2023-01-29T21:33:43.411Z,25.88
2023-01-29T21:36:10.824Z,26.17
2023-01-29T21:38:37.923Z,24.15
2023-01-29T21:41:06.448Z,26.60
2023-01-29T21:43:33.424Z,24.48
2023-01-29T21:46:11.929Z,25.85
2023-01-29T21:48:39.660Z,26.88
2023-01-29T21:51:06.603Z,25.73
2023-01-29T21:53:33.775Z,26.58
2023-01-29T21:56:01.402Z,26.13
2023-01-29T21:58:29.181Z,24.33
2023-01-29T22:00:56.232Z,26.33
2023-01-29T22:03:23.386Z,26.85
2023-01-29T22:05:50.607Z,25.75
2023-01-29T22:08:18.250Z,23.27
2023-01-29T22:10:45.336Z,26.23
2023-01-29T22:13:12.700Z,23.75
2023-01-29T22:15:39.633Z,26.30
2023-01-29T22:18:06.755Z,26.80
2023-01-29T22:20:33.633Z,27.05
2023-01-29T22:23:00.694Z,26.15
2023-01-29T22:25:27.881Z,25.38
2023-01-29T22:27:54.833Z,26.05
2023-01-29T22:30:23.462Z,24.40
2023-01-29T22:32:50.952Z,27.23
2023-01-29T22:35:17.826Z,24.55
2023-01-29T22:37:45.129Z,23.10
2023-01-29T22:40:12.980Z,24.50
2023-01-29T22:42:39.859Z,21.02
2023-01-29T22:45:07.348Z,24.63
2023-01-29T22:47:34.630Z,24.10
2023-01-29T22:50:01.568Z,23.55
2023-01-29T22:52:28.457Z,24.65
2023-01-29T22:54:55.510Z,24.63
2023-01-29T22:57:22.394Z,24.65
2023-01-29T22:59:49.147Z,23.38
2023-01-29T23:02:16.112Z,23.23
2023-01-29T23:04:42.914Z,25.00
2023-01-29T23:07:28.411Z,24.63
2023-01-29T23:09:55.096Z,21.92
2023-01-29T23:12:21.795Z,18.08
2023-01-29T23:14:48.733Z,24.85
2023-01-29T23:17:15.612Z,23.65
2023-01-29T23:19:42.767Z,23.33
2023-01-29T23:22:09.644Z,23.08
2023-01-29T23:24:36.562Z,23.58
2023-01-29T23:27:15.646Z,21.65
2023-01-29T23:29:43.395Z,21.20
2023-01-29T23:32:12.322Z,18.73
2023-01-29T23:34:39.221Z,22.33
2023-01-29T23:37:06.017Z,23.05
2023-01-29T23:39:32.919Z,22.17
2023-01-29T23:41:59.868Z,17.33
2023-01-29T23:44:26.725Z,18.52
2023-01-29T23:46:54.096Z,21.15
2023-01-29T23:49:21.043Z,19.90
2023-01-29T23:51:48.704Z,20.27
2023-01-29T23:54:16.392Z,19.33
2023-01-29T23:56:43.748Z,21.25
2023-01-29T23:59:10.967Z,20.92
